createdAt,value
2023-03-02T00:00:19.508Z,0.53
2023-03-02T00:01:19.529Z,0.52
2023-03-02T00:02:19.567Z,0.51
2023-03-02T00:03:19.616Z,0.51
2023-03-02T00:04:18.587Z,0.53
2023-03-02T00:05:19.632Z,0.50
2023-03-02T00:06:19.635Z,0.52
2023-03-02T00:07:18.636Z,0.52
2023-03-02T00:08:19.633Z,0.52
2023-03-02T00:09:19.676Z,0.51
2023-03-02T00:10:19.706Z,0.52
2023-03-02T00:11:19.705Z,0.51
2023-03-02T00:12:19.778Z,0.52
2023-03-02T00:13:19.747Z,0.52
2023-03-02T00:14:19.752Z,0.51
2023-03-02T00:15:19.774Z,0.52
2023-03-02T00:16:19.826Z,0.52
2023-03-02T00:17:19.816Z,0.51
2023-03-02T00:18:19.842Z,0.51
2023-03-02T00:19:19.846Z,0.51
2023-03-02T00:20:18.866Z,0.51
2023-03-02T00:21:18.871Z,0.52
2023-03-02T00:22:18.906Z,0.52
2023-03-02T00:23:18.953Z,0.51
2023-03-02T00:24:19.931Z,0.51
2023-03-02T00:25:19.952Z,0.50
2023-03-02T00:26:19.999Z,0.50
2023-03-02T00:27:18.989Z,0.52
2023-03-02T00:28:20.065Z,0.53
2023-03-02T00:29:20.062Z,0.52
2023-03-02T00:30:20.064Z,0.51
2023-03-02T00:31:20.176Z,0.51
2023-03-02T00:32:20.232Z,0.52
2023-03-02T00:33:20.128Z,0.52
2023-03-02T00:34:19.164Z,0.50
2023-03-02T00:35:20.239Z,0.50
2023-03-02T00:36:20.194Z,0.50
2023-03-02T00:37:20.623Z,0.51
2023-03-02T00:38:20.240Z,0.51
2023-03-02T00:39:20.423Z,0.50
2023-03-02T00:40:20.331Z,0.51
2023-03-02T00:41:20.313Z,0.51
2023-03-02T00:42:20.381Z,0.51
2023-03-02T00:43:20.356Z,0.52
2023-03-02T00:44:20.388Z,0.52
2023-03-02T00:45:20.470Z,0.51
2023-03-02T00:46:20.485Z,0.50
2023-03-02T00:47:19.452Z,0.52
2023-03-02T00:48:19.489Z,0.51
2023-03-02T00:49:20.490Z,0.51
2023-03-02T00:50:20.567Z,0.51
2023-03-02T00:51:20.550Z,0.52
2023-03-02T00:52:20.577Z,0.51
2023-03-02T00:53:20.625Z,0.51
2023-03-02T00:54:19.631Z,0.51
2023-03-02T00:55:20.700Z,0.50
2023-03-02T00:56:20.683Z,0.51
2023-03-02T00:57:20.726Z,0.52
2023-03-02T00:58:20.770Z,0.52
2023-03-02T00:59:20.762Z,0.51
2023-03-02T01:00:19.770Z,0.52
2023-03-02T01:01:20.856Z,0.51
2023-03-02T01:02:20.874Z,0.52
2023-03-02T01:03:20.899Z,0.52
2023-03-02T01:04:20.889Z,0.51
2023-03-02T01:05:20.924Z,0.52
2023-03-02T01:06:19.974Z,0.51
2023-03-02T01:07:20.972Z,0.52
2023-03-02T01:08:20.028Z,0.51
2023-03-02T01:09:21.090Z,0.51
2023-03-02T01:10:21.077Z,0.51
2023-03-02T01:11:21.093Z,0.51
2023-03-02T01:12:21.133Z,0.51
2023-03-02T01:13:21.197Z,0.51
2023-03-02T01:14:21.190Z,0.52
2023-03-02T01:15:21.216Z,0.53
2023-03-02T01:16:21.304Z,0.52
2023-03-02T01:17:21.315Z,0.51
2023-03-02T01:18:21.307Z,0.51
2023-03-02T01:19:21.313Z,0.51
2023-03-02T01:20:21.375Z,0.52
2023-03-02T01:21:21.394Z,0.51
2023-03-02T01:22:20.408Z,0.52
2023-03-02T01:23:21.460Z,0.51
2023-03-02T01:24:21.464Z,0.52
2023-03-02T01:25:21.480Z,0.52
2023-03-02T01:26:21.531Z,0.53
2023-03-02T01:27:21.562Z,0.52
2023-03-02T01:28:20.579Z,0.52
2023-03-02T01:29:21.617Z,0.53
2023-03-02T01:30:21.665Z,0.52
2023-03-02T01:31:21.721Z,0.53
2023-03-02T01:32:20.774Z,0.52
2023-03-02T01:33:21.789Z,0.51
2023-03-02T01:34:21.771Z,0.51
2023-03-02T01:35:21.939Z,0.51
2023-03-02T01:36:20.817Z,0.52
2023-03-02T01:37:21.867Z,0.51
2023-03-02T01:38:21.963Z,0.52
2023-03-02T01:39:21.926Z,0.51
2023-03-02T01:40:21.944Z,0.52
2023-03-02T01:41:21.969Z,0.52
2023-03-02T01:42:21.994Z,0.50
2023-03-02T01:43:22.052Z,0.51
2023-03-02T01:44:22.126Z,0.51
2023-03-02T01:45:22.171Z,0.51
2023-03-02T01:46:22.173Z,0.51
2023-03-02T01:47:21.146Z,0.52
2023-03-02T01:48:22.228Z,0.50
2023-03-02T01:49:22.223Z,0.51
2023-03-02T01:50:22.241Z,0.52
2023-03-02T01:51:22.287Z,0.52
2023-03-02T01:52:22.345Z,0.51
2023-03-02T01:53:22.330Z,0.51
2023-03-02T01:54:22.388Z,0.51
2023-03-02T01:55:21.444Z,0.51
2023-03-02T01:56:21.450Z,0.51
2023-03-02T01:57:22.477Z,0.52
2023-03-02T01:58:22.556Z,0.51
2023-03-02T01:59:21.559Z,0.52
2023-03-02T02:00:22.591Z,0.51
2023-03-02T02:01:22.709Z,0.51
2023-03-02T02:02:22.674Z,0.51
2023-03-02T02:03:22.696Z,0.51
2023-03-02T02:04:22.862Z,0.51
2023-03-02T02:05:22.758Z,0.52
2023-03-02T02:06:22.795Z,0.51
2023-03-02T02:07:22.841Z,0.51
2023-03-02T02:08:22.898Z,0.50
2023-03-02T02:09:22.947Z,0.51
2023-03-02T02:10:22.990Z,0.52
2023-03-02T02:11:22.993Z,0.51
2023-03-02T02:12:23.046Z,0.51
2023-03-02T02:13:23.084Z,0.52
2023-03-02T02:14:22.176Z,0.51
2023-03-02T02:15:23.181Z,0.51
2023-03-02T02:16:23.322Z,0.52
2023-03-02T02:17:23.278Z,0.51
2023-03-02T02:18:23.273Z,0.51
2023-03-02T02:19:23.322Z,0.52
2023-03-02T02:20:23.350Z,0.51
2023-03-02T02:21:23.372Z,0.52
2023-03-02T02:22:23.403Z,0.51
2023-03-02T02:23:23.473Z,0.51
2023-03-02T02:24:23.493Z,0.50
2023-03-02T02:25:23.519Z,0.51
2023-03-02T02:26:23.569Z,0.50
2023-03-02T02:27:23.624Z,0.52
2023-03-02T02:28:22.665Z,0.51
2023-03-02T02:29:23.697Z,0.51
2023-03-02T02:30:22.746Z,0.50
2023-03-02T02:31:23.903Z,0.51
2023-03-02T02:32:23.052Z,0.52
2023-03-02T02:33:22.860Z,0.50
2023-03-02T02:34:23.954Z,0.50
2023-03-02T02:35:24.027Z,0.51
2023-03-02T02:36:24.025Z,0.51
2023-03-02T02:37:24.066Z,0.50
2023-03-02T02:38:23.094Z,0.51
2023-03-02T02:39:24.145Z,0.51
2023-03-02T02:40:24.229Z,0.51
2023-03-02T02:41:24.238Z,0.51
2023-03-02T02:42:24.328Z,0.52
2023-03-02T02:43:24.336Z,0.52
2023-03-02T02:44:24.374Z,0.52
2023-03-02T02:45:24.425Z,0.52
2023-03-02T02:46:24.494Z,0.51
2023-03-02T02:47:24.504Z,0.51
2023-03-02T02:48:24.574Z,0.51
2023-03-02T02:49:24.593Z,0.51
2023-03-02T02:50:24.644Z,0.51
2023-03-02T02:51:23.675Z,0.51
2023-03-02T02:52:24.729Z,0.51
2023-03-02T02:53:24.777Z,0.51
2023-03-02T02:54:23.799Z,0.51
2023-03-02T02:55:24.847Z,0.51
2023-03-02T02:56:23.911Z,0.53
2023-03-02T02:57:24.924Z,0.52
2023-03-02T02:58:25.032Z,0.52
2023-03-02T02:59:25.033Z,0.51
2023-03-02T03:00:25.053Z,0.50
2023-03-02T03:01:25.201Z,0.51
2023-03-02T03:02:24.149Z,0.51
2023-03-02T03:03:24.189Z,0.51
2023-03-02T03:04:25.306Z,0.51
2023-03-02T03:05:24.304Z,0.51
2023-03-02T03:06:25.362Z,0.52
2023-03-02T03:07:25.396Z,0.52
2023-03-02T03:08:24.443Z,0.51
2023-03-02T03:09:25.570Z,0.51
2023-03-02T03:10:24.529Z,0.51
2023-03-02T03:11:25.555Z,0.51
2023-03-02T03:12:25.643Z,0.51
2023-03-02T03:13:25.659Z,0.51
2023-03-02T03:14:24.652Z,0.51
2023-03-02T03:15:24.722Z,0.51
2023-03-02T03:16:25.784Z,0.51
2023-03-02T03:17:25.765Z,0.51
2023-03-02T03:18:25.748Z,0.50
2023-03-02T03:19:24.790Z,0.51
2023-03-02T03:20:25.810Z,0.52
2023-03-02T03:21:25.813Z,0.51
2023-03-02T03:22:25.824Z,0.52
2023-03-02T03:23:25.817Z,0.51
2023-03-02T03:24:25.822Z,0.53
2023-03-02T03:25:25.848Z,0.53
2023-03-02T03:26:25.872Z,0.53
2023-03-02T03:27:24.826Z,0.54
2023-03-02T03:28:25.834Z,0.53
2023-03-02T03:29:25.937Z,0.54
2023-03-02T03:30:25.871Z,0.53
2023-03-02T03:31:25.863Z,0.54
2023-03-02T03:32:25.934Z,0.54
2023-03-02T03:33:25.877Z,0.55
2023-03-02T03:34:25.860Z,0.55
2023-03-02T03:35:25.900Z,0.54
2023-03-02T03:36:25.859Z,0.55
2023-03-02T03:37:25.844Z,0.56
2023-03-02T03:38:25.903Z,0.54
2023-03-02T03:39:25.849Z,0.57
2023-03-02T03:40:25.882Z,0.53
2023-03-02T03:41:25.879Z,0.55
2023-03-02T03:42:25.888Z,0.55
2023-03-02T03:43:25.924Z,0.56
2023-03-02T03:44:25.993Z,0.55
2023-03-02T03:45:26.016Z,0.56
2023-03-02T03:46:26.118Z,0.57
2023-03-02T03:47:25.085Z,0.55
2023-03-02T03:48:26.172Z,0.56
2023-03-02T03:49:26.204Z,0.55
2023-03-02T03:50:26.287Z,0.57
2023-03-02T03:51:26.369Z,0.57
2023-03-02T03:52:26.401Z,0.55
2023-03-02T03:53:26.446Z,0.57
2023-03-02T03:54:26.557Z,0.57
2023-03-02T03:55:25.569Z,0.56
2023-03-02T03:56:26.648Z,0.57
2023-03-02T03:57:26.690Z,0.57
2023-03-02T03:58:26.908Z,0.57
2023-03-02T03:59:26.805Z,0.57
2023-03-02T04:00:26.883Z,0.58
2023-03-02T04:01:26.972Z,0.56
2023-03-02T04:02:27.079Z,0.57
2023-03-02T04:03:27.056Z,0.56
2023-03-02T04:04:27.114Z,0.58
2023-03-02T04:05:27.153Z,0.56
2023-03-02T04:06:26.215Z,0.58
2023-03-02T04:07:27.259Z,0.57
2023-03-02T04:08:27.334Z,0.57
2023-03-02T04:09:27.418Z,0.57
2023-03-02T04:10:27.483Z,0.57
2023-03-02T04:11:27.513Z,0.57
2023-03-02T04:12:27.571Z,0.55
2023-03-02T04:13:27.630Z,0.58
2023-03-02T04:14:26.701Z,0.58
2023-03-02T04:15:27.819Z,0.56
2023-03-02T04:16:26.821Z,0.57
2023-03-02T04:17:27.871Z,0.57
2023-03-02T04:18:27.936Z,0.57
2023-03-02T04:19:27.976Z,0.58
2023-03-02T04:20:28.028Z,0.58
2023-03-02T04:21:28.076Z,0.56
2023-03-02T04:22:28.146Z,0.58
2023-03-02T04:23:28.186Z,0.56
2023-03-02T04:24:28.273Z,0.58
2023-03-02T04:25:28.323Z,0.57
2023-03-02T04:26:28.362Z,0.56
2023-03-02T04:27:27.387Z,0.56
2023-03-02T04:28:28.492Z,0.57
2023-03-02T04:29:28.531Z,0.57
2023-03-02T04:30:28.554Z,0.57
2023-03-02T04:31:28.744Z,0.56
2023-03-02T04:32:28.722Z,0.56
2023-03-02T04:33:28.731Z,0.56
2023-03-02T04:34:28.797Z,0.55
2023-03-02T04:35:28.949Z,0.56
2023-03-02T04:36:27.877Z,0.55
2023-03-02T04:37:28.953Z,0.56
2023-03-02T04:38:29.050Z,0.56
2023-03-02T04:39:28.074Z,0.57
2023-03-02T04:40:28.153Z,0.57
2023-03-02T04:41:28.198Z,0.57
2023-03-02T04:42:29.306Z,0.57
2023-03-02T04:43:29.289Z,0.56
2023-03-02T04:44:29.322Z,0.56
2023-03-02T04:45:29.407Z,0.56
2023-03-02T04:46:29.488Z,0.57
2023-03-02T04:47:29.466Z,0.57
2023-03-02T04:48:28.548Z,0.57
2023-03-02T04:49:28.568Z,0.56
2023-03-02T04:50:28.680Z,0.56
2023-03-02T04:51:29.674Z,0.56
2023-03-02T04:52:29.721Z,0.56
2023-03-02T04:53:29.748Z,0.57
2023-03-02T04:54:29.816Z,0.55
2023-03-02T04:55:29.842Z,0.56
2023-03-02T04:56:30.114Z,0.57
2023-03-02T04:57:28.950Z,0.56
2023-03-02T04:58:30.000Z,0.56
2023-03-02T04:59:30.021Z,0.56
2023-03-02T05:00:31.626Z,0.56
2023-03-02T05:01:30.050Z,0.57
2023-03-02T05:02:30.123Z,0.56
2023-03-02T05:03:29.054Z,0.56
2023-03-02T05:04:30.124Z,0.56
2023-03-02T05:05:30.021Z,0.58
2023-03-02T05:06:29.053Z,0.55
2023-03-02T05:07:30.017Z,0.54
2023-03-02T05:08:28.996Z,0.56
2023-03-02T05:09:28.991Z,0.57
2023-03-02T05:10:30.032Z,0.55
2023-03-02T05:11:29.966Z,0.55
2023-03-02T05:12:28.960Z,0.56
2023-03-02T05:13:29.977Z,0.56
2023-03-02T05:14:30.014Z,0.54
2023-03-02T05:15:28.941Z,0.54
2023-03-02T05:16:30.073Z,0.54
2023-03-02T05:17:28.938Z,0.55
2023-03-02T05:18:29.946Z,0.55
2023-03-02T05:19:28.898Z,0.55
2023-03-02T05:20:29.969Z,0.53
2023-03-02T05:21:29.885Z,0.54
2023-03-02T05:22:28.889Z,0.53
2023-03-02T05:23:29.881Z,0.53
2023-03-02T05:24:28.890Z,0.55
2023-03-02T05:25:29.892Z,0.54
2023-03-02T05:26:30.006Z,0.54
2023-03-02T05:27:29.849Z,0.54
2023-03-02T05:28:29.832Z,0.54
2023-03-02T05:29:29.852Z,0.53
2023-03-02T05:30:29.880Z,0.54
2023-03-02T05:31:29.927Z,0.56
2023-03-02T05:32:29.902Z,0.54
2023-03-02T05:33:29.871Z,0.55
2023-03-02T05:34:29.921Z,0.53
2023-03-02T05:35:29.987Z,0.54
2023-03-02T05:36:30.001Z,0.53
2023-03-02T05:37:29.023Z,0.53
2023-03-02T05:38:30.054Z,0.55
2023-03-02T05:39:30.074Z,0.53
2023-03-02T05:40:29.125Z,0.53
2023-03-02T05:41:29.190Z,0.55
2023-03-02T05:42:30.194Z,0.54
2023-03-02T05:43:29.219Z,0.54
2023-03-02T05:44:30.261Z,0.54
2023-03-02T05:45:30.297Z,0.54
2023-03-02T05:46:30.492Z,0.54
2023-03-02T05:47:30.368Z,0.53
2023-03-02T05:48:29.429Z,0.53
2023-03-02T05:49:30.447Z,0.54
2023-03-02T05:50:32.124Z,0.53
2023-03-02T05:51:30.673Z,0.53
2023-03-02T05:52:30.711Z,0.53
2023-03-02T05:53:30.751Z,0.54
2023-03-02T05:54:29.827Z,0.52
2023-03-02T05:55:30.844Z,0.52
2023-03-02T05:56:31.194Z,0.53
2023-03-02T05:57:29.901Z,0.52
2023-03-02T05:58:30.963Z,0.53
2023-03-02T05:59:30.970Z,0.53
2023-03-02T06:00:31.061Z,0.53
2023-03-02T06:01:31.570Z,0.54
2023-03-02T06:02:31.122Z,0.54
2023-03-02T06:04:31.213Z,0.54
2023-03-02T06:05:31.632Z,0.54
2023-03-02T06:06:33.946Z,0.54
2023-03-02T06:07:31.389Z,0.54
2023-03-02T06:08:31.422Z,0.53
2023-03-02T06:09:30.291Z,0.53
2023-03-02T06:10:31.592Z,0.55
2023-03-02T06:11:31.427Z,0.53
2023-03-02T06:12:31.237Z,0.54
2023-03-02T06:13:31.226Z,0.53
2023-03-02T06:14:31.337Z,0.54
2023-03-02T06:15:31.247Z,0.53
2023-03-02T06:16:31.854Z,0.54
2023-03-02T06:17:32.132Z,0.53
2023-03-02T06:18:31.217Z,0.53
2023-03-02T06:19:31.183Z,0.53
2023-03-02T06:20:31.234Z,0.54
2023-03-02T06:21:30.172Z,0.53
2023-03-02T06:22:31.227Z,0.53
2023-03-02T06:23:30.359Z,0.53
2023-03-02T06:24:31.449Z,0.54
2023-03-02T06:25:31.226Z,0.54
2023-03-02T06:26:30.534Z,0.55
2023-03-02T06:27:37.597Z,0.56
2023-03-02T06:28:30.099Z,0.56
2023-03-02T06:29:31.090Z,0.56
2023-03-02T06:30:31.088Z,0.57
2023-03-02T06:31:31.156Z,0.59
2023-03-02T06:32:31.119Z,0.61
2023-03-02T06:33:31.056Z,0.62
2023-03-02T06:34:30.068Z,0.63
2023-03-02T06:35:31.248Z,0.61
2023-03-02T06:36:30.160Z,0.63
2023-03-02T06:37:31.019Z,0.66
2023-03-02T06:38:31.013Z,0.65
2023-03-02T06:39:31.034Z,0.64
2023-03-02T06:40:31.001Z,0.64
2023-03-02T06:41:31.352Z,0.70
2023-03-02T06:42:30.985Z,0.70
2023-03-02T06:43:30.992Z,0.70
2023-03-02T06:44:30.996Z,0.71
2023-03-02T06:45:29.965Z,0.91
2023-03-02T06:46:31.402Z,0.88
2023-03-02T06:47:29.948Z,0.88
2023-03-02T06:48:30.978Z,0.89
2023-03-02T06:49:30.940Z,0.69
2023-03-02T06:50:30.966Z,0.66
2023-03-02T06:51:30.937Z,0.71
2023-03-02T06:52:30.930Z,0.72
2023-03-02T06:53:30.916Z,0.76
2023-03-02T06:54:30.918Z,0.66
2023-03-02T06:55:29.914Z,0.60
2023-03-02T06:56:29.889Z,0.53
2023-03-02T06:57:30.889Z,0.50
2023-03-02T06:58:30.906Z,0.50
2023-03-02T06:59:30.926Z,0.51
2023-03-02T07:00:29.944Z,0.51
2023-03-02T07:01:31.414Z,0.51
2023-03-02T07:02:31.015Z,0.52
2023-03-02T07:03:30.058Z,0.55
2023-03-02T07:04:31.037Z,0.57
2023-03-02T07:05:31.089Z,0.59
2023-03-02T07:06:31.158Z,0.61
2023-03-02T07:07:30.199Z,0.63
2023-03-02T07:08:31.217Z,0.65
2023-03-02T07:09:30.239Z,0.66
2023-03-02T07:10:31.280Z,0.67
2023-03-02T07:11:31.768Z,0.70
2023-03-02T07:12:31.347Z,0.71
2023-03-02T07:13:31.393Z,0.73
2023-03-02T07:14:31.403Z,0.74
2023-03-02T07:15:31.455Z,0.77
2023-03-02T07:16:31.524Z,0.78
2023-03-02T07:19:31.596Z,0.78
2023-03-02T07:20:31.615Z,0.80
2023-03-02T07:21:31.014Z,0.78
2023-03-02T07:22:30.705Z,0.81
2023-03-02T07:23:31.741Z,0.82
2023-03-02T07:24:31.761Z,0.80
2023-03-02T07:25:31.818Z,0.81
2023-03-02T07:26:30.844Z,0.83
2023-03-02T07:27:30.878Z,0.81
2023-03-02T07:28:31.942Z,0.82
2023-03-02T07:29:31.964Z,0.85
2023-03-02T07:30:32.068Z,0.85
2023-03-02T07:31:31.486Z,0.84
2023-03-02T07:32:32.211Z,0.86
2023-03-02T07:33:32.090Z,0.84
2023-03-02T07:35:32.182Z,0.89
2023-03-02T07:36:32.188Z,0.88
2023-03-02T07:37:32.225Z,0.90
2023-03-02T07:38:31.264Z,0.88
2023-03-02T07:39:31.280Z,0.88
2023-03-02T07:40:32.272Z,0.91
2023-03-02T07:42:31.326Z,0.93
2023-03-02T07:43:32.368Z,0.91
2023-03-02T07:44:31.378Z,0.91
2023-03-02T07:45:32.389Z,0.92
2023-03-02T07:46:32.507Z,0.91
2023-03-02T07:47:32.436Z,0.91
2023-03-02T07:48:32.454Z,0.92
2023-03-02T07:50:32.494Z,0.66
2023-03-02T07:51:33.040Z,0.73
2023-03-02T07:52:32.560Z,0.91
2023-03-02T07:53:32.568Z,0.87
2023-03-02T07:54:31.600Z,0.78
2023-03-02T07:55:31.628Z,0.71
2023-03-02T07:56:31.677Z,0.69
2023-03-02T07:57:32.751Z,0.63
2023-03-02T07:58:32.664Z,0.58
2023-03-02T07:59:32.664Z,0.57
2023-03-02T08:00:32.722Z,0.57
2023-03-02T08:01:33.095Z,0.57
2023-03-02T08:02:31.819Z,0.54
2023-03-02T08:03:32.804Z,0.50
2023-03-02T08:04:32.821Z,0.51
2023-03-02T08:05:32.861Z,0.52
2023-03-02T08:06:31.913Z,0.53
2023-03-02T08:07:31.904Z,0.53
2023-03-02T08:08:32.949Z,0.52
2023-03-02T08:09:31.990Z,0.54
2023-03-02T08:10:32.994Z,0.54
2023-03-02T08:11:32.377Z,0.55
2023-03-02T08:12:33.072Z,0.55
2023-03-02T08:17:32.184Z,0.70
2023-03-02T08:18:32.276Z,0.72
2023-03-02T08:19:33.348Z,0.75
2023-03-02T08:20:33.359Z,0.78
2023-03-02T08:21:33.702Z,0.70
2023-03-02T08:22:33.402Z,0.77
2023-03-02T08:23:33.469Z,0.82
2023-03-02T08:24:32.460Z,0.85
2023-03-02T08:25:33.465Z,0.88
2023-03-02T08:26:33.507Z,0.84
2023-03-02T08:27:33.565Z,0.80
2023-03-02T08:28:32.563Z,0.76
2023-03-02T08:29:33.568Z,0.75
2023-03-02T08:30:33.600Z,0.75
2023-03-02T08:31:33.052Z,0.77
2023-03-02T08:32:32.727Z,0.80
2023-03-02T08:33:33.653Z,0.82
2023-03-02T08:34:33.730Z,0.87
2023-03-02T08:35:33.811Z,0.90
2023-03-02T08:36:34.173Z,0.92
2023-03-02T08:37:33.855Z,0.96
2023-03-02T08:38:32.916Z,1.00
2023-03-02T08:39:33.950Z,1.05
2023-03-02T08:40:34.020Z,1.05
2023-03-02T08:41:34.407Z,1.10
2023-03-02T08:42:34.055Z,1.12
2023-03-02T08:43:34.040Z,1.17
2023-03-02T08:44:34.050Z,1.18
2023-03-02T08:45:34.079Z,1.19
2023-03-02T08:46:34.208Z,1.24
2023-03-02T08:47:34.050Z,1.26
2023-03-02T08:49:34.063Z,1.33
2023-03-02T08:50:33.059Z,1.37
2023-03-02T08:51:33.557Z,1.38
2023-03-02T08:52:34.099Z,1.42
2023-03-02T08:53:34.141Z,1.47
2023-03-02T08:54:34.134Z,1.54
2023-03-02T08:55:34.136Z,1.60
2023-03-02T08:56:33.777Z,1.61
2023-03-02T08:57:34.134Z,1.63
2023-03-02T08:58:34.192Z,1.64
2023-03-02T08:59:34.166Z,1.72
2023-03-02T09:00:34.188Z,1.73
2023-03-02T09:01:34.701Z,1.75
2023-03-02T09:02:33.227Z,1.78
2023-03-02T09:07:34.566Z,1.82
2023-03-02T09:10:34.733Z,1.99
2023-03-02T09:11:35.228Z,1.99
2023-03-02T09:13:34.948Z,2.01
2023-03-02T09:14:34.986Z,2.12
2023-03-02T09:15:34.027Z,1.98
2023-03-02T09:16:35.173Z,2.26
2023-03-02T09:17:35.140Z,2.26
2023-03-02T09:18:35.209Z,2.24
2023-03-02T09:19:35.271Z,2.59
2023-03-02T09:20:34.326Z,2.53
2023-03-02T09:21:34.817Z,2.57
2023-03-02T09:22:35.436Z,2.66
2023-03-02T09:23:35.507Z,2.70
2023-03-02T09:24:35.569Z,2.67
2023-03-02T09:25:35.613Z,2.67
2023-03-02T09:26:34.674Z,2.66
2023-03-02T09:27:34.773Z,2.70
2023-03-02T09:28:34.747Z,2.78
2023-03-02T09:29:35.824Z,2.84
2023-03-02T09:30:35.883Z,2.81
2023-03-02T09:31:36.588Z,2.81
2023-03-02T09:32:35.114Z,2.76
2023-03-02T09:33:36.022Z,2.84
2023-03-02T09:34:36.045Z,2.98
2023-03-02T09:35:36.121Z,2.85
2023-03-02T09:36:35.149Z,2.99
2023-03-02T09:37:36.239Z,2.87
2023-03-02T09:38:36.240Z,2.89
2023-03-02T09:39:36.312Z,2.73
2023-03-02T09:40:35.355Z,2.68
2023-03-02T09:41:36.439Z,2.80
2023-03-02T09:42:43.794Z,2.84
2023-03-02T09:43:36.491Z,2.84
2023-03-02T09:44:36.477Z,2.90
2023-03-02T09:45:36.510Z,3.04
2023-03-02T09:46:36.490Z,3.29
2023-03-02T09:47:36.475Z,3.66
2023-03-02T09:48:36.443Z,3.67
2023-03-02T09:49:36.456Z,3.91
2023-03-02T09:50:36.502Z,3.82
2023-03-02T09:51:36.564Z,4.29
2023-03-02T09:52:36.617Z,4.18
2023-03-02T09:53:35.601Z,4.10
2023-03-02T09:54:36.624Z,4.18
2023-03-02T09:55:36.576Z,3.90
2023-03-02T09:56:36.590Z,3.97
2023-03-02T09:57:36.714Z,3.96
2023-03-02T09:58:36.584Z,3.88
2023-03-02T09:59:36.593Z,4.19
2023-03-02T10:00:37.207Z,3.81
2023-03-02T10:01:36.579Z,3.97
2023-03-02T10:02:36.604Z,3.85
2023-03-02T10:03:36.700Z,4.07
2023-03-02T10:04:36.651Z,3.97
2023-03-02T10:05:36.640Z,4.11
2023-03-02T10:06:36.655Z,4.13
2023-03-02T10:07:36.649Z,3.89
2023-03-02T10:08:36.665Z,4.05
2023-03-02T10:09:36.677Z,4.02
2023-03-02T10:10:36.709Z,4.07
2023-03-02T10:11:36.736Z,4.07
2023-03-02T10:12:36.785Z,4.14
2023-03-02T10:13:36.825Z,4.10
2023-03-02T10:14:36.866Z,4.03
2023-03-02T10:15:35.903Z,4.24
2023-03-02T10:16:37.367Z,4.14
2023-03-02T10:17:37.061Z,4.07
2023-03-02T10:18:37.157Z,4.20
2023-03-02T10:19:37.145Z,4.20
2023-03-02T10:20:37.181Z,4.14
2023-03-02T10:21:37.228Z,4.14
2023-03-02T10:23:37.345Z,4.22
2023-03-02T10:25:37.470Z,4.46
2023-03-02T10:26:37.534Z,4.30
2023-03-02T10:27:37.625Z,4.33
2023-03-02T10:28:36.657Z,4.30
2023-03-02T10:29:37.707Z,4.26
2023-03-02T10:30:37.944Z,4.43
2023-03-02T10:31:37.819Z,4.45
2023-03-02T10:32:36.899Z,4.47
2023-03-02T10:33:37.939Z,4.37
2023-03-02T10:34:38.029Z,4.42
2023-03-02T10:35:38.109Z,4.37
2023-03-02T10:36:38.316Z,4.66
2023-03-02T10:37:37.216Z,4.55
2023-03-02T10:38:38.234Z,4.63
2023-03-02T10:39:38.288Z,4.65
2023-03-02T10:40:37.347Z,4.61
2023-03-02T10:41:39.938Z,4.67
2023-03-02T10:42:37.409Z,4.71
2023-03-02T10:43:38.396Z,4.88
2023-03-02T10:44:38.393Z,5.12
2023-03-02T10:45:38.379Z,5.01
2023-03-02T10:47:38.723Z,4.96
2023-03-02T10:48:40.961Z,4.94
2023-03-02T10:50:37.404Z,4.96
2023-03-02T10:53:38.314Z,4.93
2023-03-02T10:54:38.303Z,5.07
2023-03-02T10:55:37.304Z,4.77
2023-03-02T10:56:38.298Z,4.72
2023-03-02T10:57:38.278Z,4.80
2023-03-02T10:58:38.269Z,4.80
2023-03-02T10:59:38.267Z,4.86
2023-03-02T11:00:38.267Z,4.67
2023-03-02T11:01:38.316Z,4.52
2023-03-02T11:02:38.238Z,4.65
2023-03-02T11:03:38.225Z,4.60
2023-03-02T11:04:38.283Z,4.82
2023-03-02T11:05:38.240Z,4.82
2023-03-02T11:06:38.235Z,4.42
2023-03-02T11:07:38.221Z,4.65
2023-03-02T11:08:38.219Z,4.56
2023-03-02T11:09:38.187Z,4.38
2023-03-02T11:10:37.188Z,4.33
2023-03-02T11:11:38.491Z,4.43
2023-03-02T11:12:37.165Z,4.50
2023-03-02T11:13:38.159Z,4.27
2023-03-02T11:14:38.162Z,4.45
2023-03-02T11:15:38.252Z,4.40
2023-03-02T11:16:37.134Z,4.42
2023-03-02T11:17:37.139Z,4.18
2023-03-02T11:18:37.125Z,4.35
2023-03-02T11:19:38.168Z,4.04
2023-03-02T11:20:37.211Z,4.05
2023-03-02T11:21:38.273Z,3.94
2023-03-02T11:22:38.372Z,3.99
2023-03-02T11:23:38.430Z,4.04
2023-03-02T11:24:38.470Z,4.06
2023-03-02T11:25:38.506Z,4.13
2023-03-02T11:26:38.562Z,4.06
2023-03-02T11:27:38.610Z,4.04
2023-03-02T11:28:38.708Z,3.91
2023-03-02T11:29:37.747Z,3.96
2023-03-02T11:30:37.795Z,3.88
2023-03-02T11:31:38.893Z,3.95
2023-03-02T11:32:38.982Z,3.91
2023-03-02T11:33:39.037Z,3.86
2023-03-02T11:34:39.044Z,3.79
2023-03-02T11:35:39.173Z,3.80
2023-03-02T11:36:39.165Z,3.78
2023-03-02T11:37:39.249Z,3.77
2023-03-02T11:38:39.275Z,3.75
2023-03-02T11:39:46.531Z,3.66
2023-03-02T11:40:41.288Z,3.66
2023-03-02T11:41:39.279Z,3.67
2023-03-02T11:42:39.743Z,3.68
2023-03-02T11:43:39.326Z,3.69
2023-03-02T11:44:39.265Z,3.64
2023-03-02T11:45:39.261Z,3.59
2023-03-02T11:46:39.307Z,3.58
2023-03-02T11:47:39.243Z,3.57
2023-03-02T11:48:38.250Z,3.57
2023-03-02T11:49:39.301Z,3.55
2023-03-02T11:50:39.218Z,3.46
2023-03-02T11:51:47.098Z,3.48
2023-03-02T11:52:39.278Z,3.48
2023-03-02T11:53:38.299Z,3.49
2023-03-02T11:54:39.248Z,3.48
2023-03-02T11:55:39.191Z,3.43
2023-03-02T11:56:39.168Z,3.39
2023-03-02T11:57:39.792Z,3.39
2023-03-02T11:58:39.200Z,3.40
2023-03-02T11:59:39.160Z,3.27
2023-03-02T12:00:38.165Z,3.31
2023-03-02T12:01:39.248Z,3.29
2023-03-02T12:02:39.151Z,3.27
2023-03-02T12:03:38.143Z,3.26
2023-03-02T12:04:39.124Z,3.25
2023-03-02T12:05:39.146Z,3.26
2023-03-02T12:06:39.107Z,3.18
2023-03-02T12:07:39.118Z,3.09
2023-03-02T12:08:39.097Z,3.19
2023-03-02T12:09:39.089Z,3.15
2023-03-02T12:10:39.124Z,3.19
2023-03-02T12:11:39.154Z,3.15
2023-03-02T12:12:38.211Z,3.15
2023-03-02T12:13:39.266Z,3.12
2023-03-02T12:14:39.329Z,3.07
2023-03-02T12:15:39.414Z,3.09
2023-03-02T12:16:38.517Z,3.03
2023-03-02T12:17:39.501Z,3.02
2023-03-02T12:18:38.516Z,2.92
2023-03-02T12:19:39.556Z,2.96
2023-03-02T12:20:39.587Z,2.95
2023-03-02T12:21:39.624Z,2.90
2023-03-02T12:22:39.669Z,2.94
2023-03-02T12:23:39.703Z,2.90
2023-03-02T12:24:39.719Z,2.94
2023-03-02T12:25:39.749Z,2.97
2023-03-02T12:26:39.807Z,2.92
2023-03-02T12:27:39.904Z,2.92
2023-03-02T12:28:39.832Z,2.79
2023-03-02T12:29:39.833Z,2.88
2023-03-02T12:30:39.852Z,2.87
2023-03-02T12:31:39.963Z,2.79
2023-03-02T12:32:39.992Z,2.81
2023-03-02T12:33:39.910Z,2.80
2023-03-02T12:34:38.950Z,2.76
2023-03-02T12:35:39.037Z,2.74
2023-03-02T12:36:38.986Z,2.85
2023-03-02T12:37:40.301Z,2.69
2023-03-02T12:38:39.048Z,2.70
2023-03-02T12:39:39.080Z,2.66
2023-03-02T12:40:40.075Z,2.60
2023-03-02T12:41:40.124Z,2.69
2023-03-02T12:42:39.140Z,2.57
2023-03-02T12:43:39.140Z,2.60
2023-03-02T12:44:40.143Z,2.73
2023-03-02T12:45:39.190Z,2.59
2023-03-02T12:46:39.182Z,2.56
2023-03-02T12:47:39.430Z,2.53
2023-03-02T12:48:40.512Z,2.55
2023-03-02T12:49:40.257Z,2.59
2023-03-02T12:50:40.280Z,2.65
2023-03-02T12:51:39.353Z,2.49
2023-03-02T12:52:40.438Z,2.47
2023-03-02T12:53:39.367Z,2.61
2023-03-02T12:54:40.377Z,2.55
2023-03-02T12:55:40.433Z,2.48
2023-03-02T12:56:40.458Z,2.49
2023-03-02T12:57:40.485Z,2.37
2023-03-02T12:58:40.542Z,2.39
2023-03-02T12:59:40.575Z,2.51
2023-03-02T13:00:40.808Z,2.48
2023-03-02T13:01:40.632Z,2.39
2023-03-02T13:02:40.666Z,2.37
2023-03-02T13:03:40.699Z,2.48
2023-03-02T13:04:39.724Z,2.35
2023-03-02T13:05:39.752Z,2.44
2023-03-02T13:06:40.795Z,2.42
2023-03-02T13:07:40.842Z,2.41
2023-03-02T13:08:40.910Z,2.36
2023-03-02T13:09:47.742Z,2.39
2023-03-02T13:10:41.082Z,2.39
2023-03-02T13:11:39.896Z,2.39
2023-03-02T13:12:40.897Z,2.39
2023-03-02T13:13:40.986Z,2.36
2023-03-02T13:14:40.904Z,2.26
2023-03-02T13:15:39.881Z,2.31
2023-03-02T13:16:40.937Z,2.21
2023-03-02T13:17:39.859Z,2.32
2023-03-02T13:18:40.869Z,2.32
2023-03-02T13:19:39.842Z,2.27
2023-03-02T13:20:39.834Z,2.23
2023-03-02T13:21:40.842Z,2.25
2023-03-02T13:22:40.874Z,2.26
2023-03-02T13:23:40.813Z,2.25
2023-03-02T13:24:40.797Z,2.25
2023-03-02T13:25:40.803Z,2.18
2023-03-02T13:26:40.798Z,2.20
2023-03-02T13:27:39.820Z,2.12
2023-03-02T13:28:40.781Z,2.03
2023-03-02T13:29:40.770Z,2.02
2023-03-02T13:30:40.944Z,1.99
2023-03-02T13:31:40.804Z,2.00
2023-03-02T13:32:40.757Z,1.97
2023-03-02T13:33:40.792Z,1.99
2023-03-02T13:34:39.839Z,2.00
2023-03-02T13:35:40.927Z,2.01
2023-03-02T13:36:40.947Z,2.00
2023-03-02T13:37:41.005Z,2.00
2023-03-02T13:38:40.056Z,1.98
2023-03-02T13:39:40.101Z,1.99
2023-03-02T13:40:41.195Z,1.95
2023-03-02T13:41:41.232Z,1.93
2023-03-02T13:42:41.297Z,1.94